createdAt,value
2022-09-28T00:02:02.660Z,6.39
2022-09-28T00:04:31.290Z,6.77
2022-09-28T00:06:59.759Z,8.28
2022-09-28T00:09:28.505Z,6.51
2022-09-28T00:11:57.710Z,9.35
2022-09-28T00:14:28.941Z,9.25
2022-09-28T00:17:00.170Z,9.96
2022-09-28T00:19:28.429Z,6.63
2022-09-28T00:21:57.980Z,7.79
2022-09-28T00:24:28.265Z,9.30
2022-09-28T00:26:59.271Z,9.94
2022-09-28T00:29:31.742Z,8.56
2022-09-28T00:32:05.068Z,8.66
2022-09-28T00:34:36.216Z,7.54
2022-09-28T00:37:08.970Z,6.26
2022-09-28T00:39:38.469Z,7.61
2022-09-28T00:42:14.015Z,6.82
2022-09-28T00:44:45.331Z,8.22
2022-09-28T00:47:49.787Z,9.91
2022-09-28T00:50:28.148Z,7.66
2022-09-28T00:53:02.544Z,9.95
2022-09-28T00:55:37.782Z,8.24
2022-09-28T00:58:10.533Z,8.53
2022-09-28T01:00:41.110Z,9.73
2022-09-28T01:03:11.467Z,7.13
2022-09-28T01:05:42.352Z,8.84
2022-09-28T01:08:13.805Z,6.71
2022-09-28T01:10:46.481Z,8.52
2022-09-28T01:13:20.525Z,8.85
2022-09-28T01:16:11.216Z,6.35
2022-09-28T01:18:49.653Z,9.84
2022-09-28T01:21:22.179Z,6.47
2022-09-28T01:24:16.717Z,7.61
2022-09-28T01:27:15.134Z,9.19
2022-09-28T01:29:52.023Z,6.83
2022-09-28T01:32:33.932Z,6.89
2022-09-28T01:35:09.526Z,9.84
2022-09-28T01:37:46.044Z,6.61
2022-09-28T01:40:17.898Z,9.87
2022-09-28T01:42:54.767Z,9.16
2022-09-28T01:45:28.433Z,7.40
2022-09-28T01:47:59.938Z,9.58
2022-09-28T01:50:32.183Z,9.53
2022-09-28T01:53:08.324Z,8.36
2022-09-28T01:55:43.129Z,8.24
2022-09-28T01:58:17.564Z,7.63
2022-09-28T02:00:52.318Z,6.82
2022-09-28T02:03:28.497Z,9.74
2022-09-28T02:06:09.273Z,6.41
2022-09-28T02:08:41.483Z,9.75
2022-09-28T02:11:15.434Z,8.01
2022-09-28T02:13:49.536Z,6.59
2022-09-28T02:16:24.273Z,9.60
2022-09-28T02:18:54.543Z,8.44
2022-09-28T02:21:30.648Z,6.88
2022-09-28T02:24:02.859Z,7.57
2022-09-28T02:26:37.185Z,8.65
2022-09-28T02:29:06.921Z,7.98
2022-09-28T02:31:39.371Z,9.24
2022-09-28T02:34:08.314Z,9.65
2022-09-28T02:36:37.707Z,8.62
2022-09-28T02:39:07.241Z,7.38
2022-09-28T02:41:45.608Z,9.82
2022-09-28T02:44:30.900Z,9.08
2022-09-28T02:47:05.397Z,7.23
2022-09-28T02:49:49.507Z,8.60
2022-09-28T02:52:35.821Z,7.61
2022-09-28T02:55:21.477Z,9.36
2022-09-28T02:58:07.178Z,8.06
2022-09-28T03:00:46.888Z,7.86
2022-09-28T03:03:23.398Z,6.15
2022-09-28T03:06:03.397Z,9.71
2022-09-28T03:08:42.740Z,9.78
2022-09-28T03:11:19.935Z,9.70
2022-09-28T03:13:53.105Z,8.20
2022-09-28T03:16:28.341Z,9.07
2022-09-28T03:18:59.922Z,8.39
2022-09-28T03:21:28.848Z,8.11
2022-09-28T03:23:57.866Z,9.88
2022-09-28T03:26:26.874Z,8.09
2022-09-28T03:28:55.132Z,6.71
2022-09-28T03:31:30.063Z,8.29
2022-09-28T03:33:58.847Z,6.61
2022-09-28T03:36:27.528Z,6.48
2022-09-28T03:38:56.280Z,9.96
2022-09-28T03:41:29.411Z,8.97
2022-09-28T03:43:57.813Z,9.25
2022-09-28T03:46:30.081Z,6.88
2022-09-28T03:49:06.839Z,6.42
2022-09-28T03:51:35.467Z,7.20
2022-09-28T03:54:04.192Z,9.84
2022-09-28T03:56:34.131Z,6.65
2022-09-28T03:59:04.383Z,7.54
2022-09-28T04:01:34.829Z,6.59
2022-09-28T04:04:05.615Z,7.07
2022-09-28T04:06:35.020Z,9.18
2022-09-28T04:09:03.505Z,7.11
2022-09-28T04:11:43.040Z,9.88
2022-09-28T04:14:23.068Z,9.02
2022-09-28T04:16:55.667Z,8.54
2022-09-28T04:19:26.839Z,6.80
2022-09-28T04:22:14.515Z,9.89
2022-09-28T04:24:43.743Z,9.03
2022-09-28T04:27:29.813Z,9.81
2022-09-28T04:29:59.732Z,8.01
2022-09-28T04:32:30.214Z,9.86
2022-09-28T04:34:58.843Z,6.75
2022-09-28T04:37:27.544Z,8.47
2022-09-28T04:39:56.055Z,6.22
2022-09-28T04:42:25.095Z,7.44
2022-09-28T04:44:58.087Z,8.90
2022-09-28T04:47:27.754Z,6.39
2022-09-28T04:50:33.407Z,7.50
2022-09-28T04:53:13.923Z,6.71
2022-09-28T04:55:43.616Z,8.58
2022-09-28T04:58:12.210Z,7.72
2022-09-28T05:00:40.742Z,8.92
2022-09-28T05:03:35.927Z,6.72
2022-09-28T05:06:28.333Z,7.69
2022-09-28T05:09:03.659Z,6.99
2022-09-28T05:11:33.376Z,7.56
2022-09-28T05:14:02.449Z,7.61
2022-09-28T05:16:34.196Z,7.65
2022-09-28T05:19:32.404Z,9.00
2022-09-28T05:22:18.106Z,9.80
2022-09-28T05:24:48.210Z,9.28
2022-09-28T05:27:17.573Z,8.90
2022-09-28T05:29:53.562Z,8.16
2022-09-28T05:32:50.261Z,9.68
2022-09-28T05:35:39.621Z,6.21
2022-09-28T05:38:10.019Z,9.75
2022-09-28T05:40:39.889Z,9.74
2022-09-28T05:43:10.304Z,6.30
2022-09-28T05:45:40.669Z,6.28
2022-09-28T05:48:09.648Z,7.02
2022-09-28T05:50:38.297Z,8.32
2022-09-28T05:53:11.341Z,8.44
2022-09-28T05:55:40.624Z,8.70
2022-09-28T05:58:09.383Z,8.71
2022-09-28T06:00:37.381Z,9.88
2022-09-28T06:03:08.906Z,9.46
2022-09-28T06:05:39.145Z,9.93
2022-09-28T06:08:10.249Z,9.94
2022-09-28T06:10:39.459Z,9.73
2022-09-28T06:13:08.397Z,9.99
2022-09-28T06:15:38.228Z,10.03
2022-09-28T06:18:14.575Z,10.09
2022-09-28T06:20:53.833Z,10.25
2022-09-28T06:23:33.475Z,9.76
2022-09-28T06:26:01.887Z,9.03
2022-09-28T06:28:31.790Z,6.87
2022-09-28T06:31:03.516Z,6.58
2022-09-28T06:33:33.014Z,9.61
2022-09-28T06:36:00.939Z,9.64
2022-09-28T06:38:29.161Z,10.79
2022-09-28T06:40:59.848Z,10.42
2022-09-28T06:43:34.133Z,10.69
2022-09-28T06:46:14.945Z,10.74
2022-09-28T06:48:53.527Z,10.82
2022-09-28T06:51:41.642Z,10.97
2022-09-28T06:54:32.709Z,11.06
2022-09-28T06:57:11.504Z,11.06
2022-09-28T06:59:39.789Z,11.03
2022-09-28T07:02:07.799Z,11.01
2022-09-28T07:04:58.987Z,10.93
2022-09-28T07:07:59.452Z,10.86
2022-09-28T07:10:56.196Z,10.87
2022-09-28T07:13:51.014Z,11.01
2022-09-28T07:16:26.547Z,11.28
2022-09-28T07:18:55.823Z,11.49
2022-09-28T07:21:29.572Z,11.56
2022-09-28T07:24:01.097Z,11.62
2022-09-28T07:27:06.630Z,11.69
2022-09-28T07:29:59.747Z,11.62
2022-09-28T07:32:41.638Z,11.75
2022-09-28T07:35:22.199Z,11.75
2022-09-28T07:37:59.445Z,11.68
2022-09-28T07:40:48.309Z,11.60
2022-09-28T07:43:20.421Z,11.56
2022-09-28T07:45:52.900Z,11.53
2022-09-28T07:48:21.979Z,11.51
2022-09-28T07:51:09.074Z,11.49
2022-09-28T07:53:42.326Z,11.41
2022-09-28T07:56:20.495Z,11.61
2022-09-28T07:59:04.123Z,11.67
2022-09-28T08:01:42.303Z,11.75
2022-09-28T08:04:12.683Z,11.88
2022-09-28T08:06:42.427Z,11.90
2022-09-28T08:09:12.766Z,11.95
2022-09-28T08:12:10.409Z,11.96
2022-09-28T08:15:01.244Z,11.81
2022-09-28T08:17:50.588Z,12.05
2022-09-28T08:20:38.300Z,12.04
2022-09-28T08:23:06.034Z,12.06
2022-09-28T08:25:38.157Z,11.82
2022-09-28T08:28:07.179Z,12.18
2022-09-28T08:30:39.654Z,12.30
2022-09-28T08:33:27.202Z,12.35
2022-09-28T08:36:18.131Z,12.48
2022-09-28T08:39:05.062Z,12.79
2022-09-28T08:42:05.111Z,13.12
2022-09-28T08:48:08.552Z,13.46
2022-09-28T08:51:00.375Z,13.12
2022-09-28T08:54:11.037Z,13.05
2022-09-28T08:56:56.312Z,13.19
2022-09-28T08:59:28.032Z,13.30
2022-09-28T09:02:04.412Z,13.35
2022-09-28T09:04:34.895Z,13.40
2022-09-28T09:07:49.073Z,13.14
2022-09-28T09:10:39.260Z,12.95
2022-09-28T09:13:24.374Z,12.84
2022-09-28T09:15:58.939Z,12.85
2022-09-28T09:19:08.668Z,12.85
2022-09-28T09:21:52.171Z,13.05
2022-09-28T09:24:27.172Z,13.34
2022-09-28T09:27:06.819Z,13.62
2022-09-28T09:29:50.173Z,14.20
2022-09-28T09:32:31.017Z,15.02
2022-09-28T09:35:13.383Z,15.36
2022-09-28T09:38:16.034Z,15.10
2022-09-28T09:41:22.356Z,14.52
2022-09-28T09:44:36.158Z,14.35
2022-09-28T09:47:30.841Z,14.31
2022-09-28T09:50:14.990Z,14.24
2022-09-28T09:52:51.526Z,13.88
2022-09-28T09:55:29.641Z,14.20
2022-09-28T09:58:21.681Z,14.39
2022-09-28T10:01:05.649Z,14.67
2022-09-28T10:03:55.062Z,15.19
2022-09-28T10:06:31.100Z,15.89
2022-09-28T10:09:04.422Z,16.53
2022-09-28T10:11:38.328Z,17.75
2022-09-28T10:14:16.744Z,16.76
2022-09-28T10:16:57.005Z,19.79
2022-09-28T10:19:46.816Z,21.07
2022-09-28T10:22:33.468Z,20.60
2022-09-28T10:25:12.617Z,18.30
2022-09-28T10:27:46.116Z,18.39
2022-09-28T10:30:19.220Z,16.91
2022-09-28T10:32:51.291Z,17.36
2022-09-28T10:35:26.982Z,17.77
2022-09-28T10:38:04.417Z,17.76
2022-09-28T10:40:45.847Z,17.49
2022-09-28T10:43:23.705Z,19.62
2022-09-28T10:46:02.864Z,19.33
2022-09-28T10:48:48.128Z,18.00
2022-09-28T10:51:16.018Z,17.60
2022-09-28T10:54:00.064Z,18.05
2022-09-28T10:56:48.790Z,15.58
2022-09-28T10:59:36.940Z,16.24
2022-09-28T11:02:26.619Z,15.94
2022-09-28T11:05:02.796Z,18.44
2022-09-28T11:07:47.287Z,15.91
2022-09-28T11:10:23.685Z,15.65
2022-09-28T11:12:54.222Z,17.02
2022-09-28T11:15:29.321Z,16.28
2022-09-28T11:17:57.794Z,16.00
2022-09-28T11:20:35.517Z,15.44
2022-09-28T11:23:20.467Z,16.05
2022-09-28T11:26:01.324Z,14.09
2022-09-28T11:28:34.316Z,12.24
2022-09-28T11:31:09.204Z,16.70
2022-09-28T11:34:06.652Z,21.08
2022-09-28T11:37:01.565Z,18.99
2022-09-28T11:39:42.266Z,20.48
2022-09-28T11:42:21.580Z,18.22
2022-09-28T11:44:56.504Z,16.52
2022-09-28T11:47:55.189Z,16.44
2022-09-28T11:50:29.593Z,17.14
2022-09-28T11:53:10.608Z,17.34
2022-09-28T11:55:44.210Z,17.93
2022-09-28T11:58:20.393Z,22.98
2022-09-28T12:00:53.776Z,25.51
2022-09-28T12:03:36.128Z,23.82
2022-09-28T12:06:08.864Z,23.58
2022-09-28T12:08:44.765Z,24.87
2022-09-28T12:11:36.704Z,26.74
2022-09-28T12:14:37.347Z,24.76
2022-09-28T12:17:50.280Z,23.70
2022-09-28T12:20:31.207Z,21.52
2022-09-28T12:23:08.475Z,17.35
2022-09-28T12:25:46.302Z,17.29
2022-09-28T12:28:20.345Z,16.97
2022-09-28T12:30:50.590Z,16.59
2022-09-28T12:36:42.395Z,15.66
2022-09-28T12:39:40.900Z,14.18
2022-09-28T12:42:30.050Z,16.39
2022-09-28T12:45:18.888Z,16.15
2022-09-28T12:48:07.762Z,14.77
2022-09-28T12:50:54.487Z,16.34
2022-09-28T12:53:52.935Z,14.17
2022-09-28T12:56:30.406Z,15.39
2022-09-28T12:59:12.096Z,15.91
2022-09-28T13:02:02.396Z,14.17
2022-09-28T13:04:47.258Z,15.88
2022-09-28T13:07:24.327Z,16.13
2022-09-28T13:10:05.314Z,15.78
2022-09-28T13:12:47.954Z,13.13
2022-09-28T13:15:32.266Z,12.64
2022-09-28T13:18:07.374Z,15.35
2022-09-28T13:20:44.485Z,15.79
2022-09-28T13:23:22.042Z,15.92
2022-09-28T13:25:55.977Z,15.82
2022-09-28T13:28:27.444Z,14.20
2022-09-28T13:33:35.777Z,12.28
2022-09-28T13:36:04.913Z,14.33
2022-09-28T13:38:49.620Z,15.07
2022-09-28T13:41:31.771Z,15.65
2022-09-28T13:44:23.825Z,14.49
2022-09-28T13:47:20.757Z,16.04
2022-09-28T13:50:01.797Z,13.32
2022-09-28T13:52:44.979Z,13.36
2022-09-28T13:55:26.096Z,15.75
2022-09-28T13:57:58.020Z,16.15
2022-09-28T14:00:31.917Z,16.08
2022-09-28T14:03:14.891Z,16.05
2022-09-28T14:05:53.191Z,14.80
2022-09-28T14:08:38.445Z,14.61
2022-09-28T14:11:42.398Z,15.47
2022-09-28T14:14:30.195Z,15.30
2022-09-28T14:17:35.972Z,15.90
2022-09-28T14:20:11.120Z,15.79
2022-09-28T14:22:50.598Z,14.24
2022-09-28T14:25:39.398Z,14.72
2022-09-28T14:28:26.103Z,14.91
2022-09-28T14:30:58.285Z,16.08
2022-09-28T14:33:29.262Z,16.10
2022-09-28T14:36:02.037Z,16.09
2022-09-28T14:38:51.378Z,13.27
2022-09-28T14:41:31.293Z,15.99
2022-09-28T14:44:02.602Z,16.05
2022-09-28T14:46:33.451Z,15.91
2022-09-28T14:49:03.600Z,16.05
2022-09-28T14:52:04.066Z,16.01
2022-09-28T14:54:43.200Z,14.96
2022-09-28T14:57:18.624Z,15.71
2022-09-28T14:59:47.789Z,14.74
2022-09-28T15:02:26.110Z,15.90
2022-09-28T15:04:56.745Z,15.44
2022-09-28T15:07:29.239Z,15.78
2022-09-28T15:09:58.377Z,15.71
2022-09-28T15:12:28.575Z,15.99
2022-09-28T15:14:59.372Z,14.80
2022-09-28T15:17:30.427Z,15.98
2022-09-28T15:20:23.707Z,16.09
2022-09-28T15:22:57.565Z,14.31
2022-09-28T15:25:27.817Z,15.97
2022-09-28T15:27:58.707Z,15.92
2022-09-28T15:30:29.542Z,14.25
2022-09-28T15:33:18.922Z,15.75
2022-09-28T15:35:49.613Z,15.64
2022-09-28T15:38:19.217Z,15.43
2022-09-28T15:40:48.533Z,15.04
2022-09-28T15:43:27.107Z,15.07
2022-09-28T15:46:06.186Z,15.21
2022-09-28T15:48:41.812Z,11.46
2022-09-28T15:51:12.138Z,15.11
2022-09-28T15:53:53.031Z,15.11
2022-09-28T15:56:24.019Z,12.89
2022-09-28T15:59:10.135Z,11.85
2022-09-28T16:01:45.587Z,10.73
2022-09-28T16:04:37.587Z,14.54
2022-09-28T16:07:18.234Z,12.94
2022-09-28T16:10:04.665Z,12.79
2022-09-28T16:12:43.641Z,12.49
2022-09-28T16:15:21.170Z,11.54
2022-09-28T16:17:52.692Z,12.73
2022-09-28T16:20:29.436Z,12.52
2022-09-28T16:23:03.403Z,11.72
2022-09-28T16:25:35.729Z,13.31
2022-09-28T16:28:04.314Z,13.68
2022-09-28T16:30:33.900Z,12.16
2022-09-28T16:33:03.259Z,12.31
2022-09-28T16:35:33.342Z,13.49
2022-09-28T16:38:10.840Z,11.42
2022-09-28T16:40:46.372Z,12.11
2022-09-28T16:43:26.885Z,10.64
2022-09-28T16:46:00.228Z,11.32
2022-09-28T16:48:30.351Z,11.92
2022-09-28T16:50:59.206Z,10.93
2022-09-28T16:53:44.720Z,11.97
2022-09-28T16:56:14.743Z,11.09
2022-09-28T16:58:44.146Z,10.66
2022-09-28T17:01:13.682Z,12.51
2022-09-28T17:03:46.937Z,12.44
2022-09-28T17:06:17.251Z,10.36
2022-09-28T17:08:46.169Z,12.22
2022-09-28T17:11:23.680Z,12.22
2022-09-28T17:13:56.670Z,12.22
2022-09-28T17:17:02.373Z,11.11
2022-09-28T17:19:20.880Z,10.61
2022-09-28T17:21:50.056Z,10.01
2022-09-28T17:24:18.838Z,10.06
2022-09-28T17:26:50.891Z,11.83
2022-09-28T17:29:20.066Z,11.14
2022-09-28T17:31:49.107Z,10.43
2022-09-28T17:34:17.759Z,10.17
2022-09-28T17:36:46.395Z,10.55
2022-09-28T17:39:17.529Z,11.54
2022-09-28T17:41:46.368Z,11.20
2022-09-28T17:44:16.631Z,11.69
2022-09-28T17:46:49.159Z,11.67
2022-09-28T17:49:17.630Z,11.40
2022-09-28T17:51:45.592Z,11.42
2022-09-28T17:54:16.621Z,11.70
2022-09-28T17:56:44.356Z,11.68
2022-09-28T17:59:17.318Z,11.67
2022-09-28T18:01:45.188Z,11.65
2022-09-28T18:04:33.403Z,11.50
2022-09-28T18:07:03.207Z,11.43
2022-09-28T18:09:31.875Z,11.13
2022-09-28T18:12:01.938Z,8.71
2022-09-28T18:14:31.158Z,8.32
2022-09-28T18:16:59.850Z,11.59
2022-09-28T18:19:31.968Z,11.58
2022-09-28T18:22:01.592Z,10.14
2022-09-28T18:24:32.404Z,10.30
2022-09-28T18:27:00.516Z,11.38
2022-09-28T18:29:32.856Z,8.30
2022-09-28T18:32:02.907Z,11.52
2022-09-28T18:34:30.714Z,11.24
2022-09-28T18:36:58.716Z,11.46
2022-09-28T18:39:26.638Z,11.41
2022-09-28T18:42:11.931Z,11.18
2022-09-28T18:44:42.246Z,9.86
2022-09-28T18:47:13.653Z,10.36
2022-09-28T18:49:46.531Z,10.04
2022-09-28T18:52:15.201Z,7.63
2022-09-28T18:54:49.180Z,7.57
2022-09-28T18:57:34.126Z,7.47
2022-09-28T19:00:05.777Z,7.77
2022-09-28T19:02:36.337Z,7.88
2022-09-28T19:05:06.908Z,8.39
2022-09-28T19:07:35.621Z,9.05
2022-09-28T19:10:04.226Z,8.25
2022-09-28T19:12:34.023Z,7.10
2022-09-28T19:15:09.028Z,9.36
2022-09-28T19:17:39.758Z,9.46
2022-09-28T19:20:09.055Z,7.28
2022-09-28T19:22:37.731Z,9.16
2022-09-28T19:25:06.812Z,7.52
2022-09-28T19:27:35.420Z,10.08
2022-09-28T19:30:04.152Z,9.44
2022-09-28T19:32:34.704Z,10.17
2022-09-28T19:35:05.869Z,7.14
2022-09-28T19:37:39.581Z,7.48
2022-09-28T19:40:09.184Z,7.25
2022-09-28T19:42:38.939Z,10.68
2022-09-28T19:45:09.110Z,7.52
2022-09-28T19:47:41.150Z,7.36
2022-09-28T19:50:11.596Z,7.46
2022-09-28T19:52:40.352Z,7.40
2022-09-28T19:55:09.712Z,6.71
2022-09-28T19:57:38.262Z,9.10
2022-09-28T20:00:11.549Z,8.54
2022-09-28T20:02:41.100Z,9.24
2022-09-28T20:05:10.879Z,8.45
2022-09-28T20:07:39.996Z,10.49
2022-09-28T20:10:10.498Z,7.01
2022-09-28T20:12:42.577Z,9.01
2022-09-28T20:15:11.668Z,10.17
2022-09-28T20:17:40.130Z,7.57
2022-09-28T20:20:12.423Z,8.20
2022-09-28T20:22:41.806Z,6.66
2022-09-28T20:25:10.959Z,7.12
2022-09-28T20:27:40.195Z,10.27
2022-09-28T20:30:11.347Z,7.10
2022-09-28T20:32:40.417Z,9.51
2022-09-28T20:35:11.042Z,8.44
2022-09-28T20:37:39.279Z,8.64
2022-09-28T20:40:11.070Z,8.31
2022-09-28T20:42:42.134Z,9.09
2022-09-28T20:45:11.097Z,10.18
2022-09-28T20:47:39.061Z,6.57
2022-09-28T20:50:07.829Z,10.24
2022-09-28T20:52:36.873Z,10.21
2022-09-28T20:55:04.813Z,10.19
2022-09-28T20:57:32.535Z,9.71
2022-09-28T21:00:00.338Z,10.08
2022-09-28T21:02:29.194Z,9.82
2022-09-28T21:04:58.280Z,8.73
2022-09-28T21:07:26.650Z,6.36
2022-09-28T21:09:57.325Z,9.90
2022-09-28T21:12:28.710Z,9.78
2022-09-28T21:15:03.529Z,6.53
2022-09-28T21:17:37.560Z,6.76
2022-09-28T21:20:08.794Z,7.72
2022-09-28T21:22:40.491Z,9.78
2022-09-28T21:25:11.603Z,8.49
2022-09-28T21:27:40.795Z,8.07
2022-09-28T21:30:10.690Z,8.37
2022-09-28T21:32:38.705Z,9.71
2022-09-28T21:35:08.809Z,9.50
2022-09-28T21:37:37.921Z,6.41
2022-09-28T21:40:10.245Z,6.23
2022-09-28T21:42:40.604Z,8.10
2022-09-28T21:45:13.043Z,6.12
2022-09-28T21:47:44.253Z,7.04
2022-09-28T21:50:13.462Z,6.70
2022-09-28T21:52:41.979Z,9.62
2022-09-28T21:55:11.522Z,6.32
2022-09-28T21:57:42.982Z,5.86
2022-09-28T22:00:15.205Z,6.66
2022-09-28T22:02:44.733Z,6.40
2022-09-28T22:05:14.878Z,6.20
2022-09-28T22:07:44.657Z,5.84
2022-09-28T22:10:15.837Z,8.22
2022-09-28T22:12:46.448Z,9.57
2022-09-28T22:15:15.650Z,9.52
2022-09-28T22:17:48.121Z,8.32
2022-09-28T22:20:17.321Z,9.45
2022-09-28T22:22:50.543Z,7.18
2022-09-28T22:25:19.665Z,5.83
2022-09-28T22:27:50.121Z,6.93
2022-09-28T22:30:19.130Z,7.87
2022-09-28T22:32:47.844Z,6.76
2022-09-28T22:57:42.066Z,8.55
2022-09-28T23:22:40.157Z,8.16
2022-09-28T23:34:53.400Z,8.02
2022-09-28T23:46:54.088Z,7.71
2022-09-28T23:49:22.778Z,6.23
2022-09-28T23:51:51.422Z,7.56
2022-09-28T23:54:20.411Z,7.55
2022-09-28T23:56:49.097Z,5.66
2022-09-28T23:59:17.498Z,4.18
